createdAt,value
2019-03-31T00:00:32.233Z,51.50
2019-03-31T00:03:03.482Z,50.70
2019-03-31T00:05:37.297Z,50.70
2019-03-31T00:08:07.878Z,50.80
2019-03-31T00:10:41.391Z,50.90
2019-03-31T00:13:12.693Z,51.00
2019-03-31T00:15:43.969Z,50.90
2019-03-31T00:18:15.181Z,51.00
2019-03-31T00:20:46.428Z,51.10
2019-03-31T00:23:17.718Z,51.20
2019-03-31T00:25:51.591Z,51.20
2019-03-31T00:28:22.991Z,51.30
2019-03-31T00:30:55.118Z,51.30
2019-03-31T00:33:26.367Z,51.30
2019-03-31T00:35:57.614Z,51.40
2019-03-31T00:38:28.929Z,51.40
2019-03-31T00:41:00.172Z,51.50
2019-03-31T00:43:31.559Z,51.50
2019-03-31T00:46:02.871Z,51.60
2019-03-31T00:48:34.092Z,51.70
2019-03-31T00:51:05.332Z,51.70
2019-03-31T00:53:36.580Z,51.80
2019-03-31T00:56:07.788Z,51.80
2019-03-31T00:58:40.234Z,51.90
2019-03-31T01:01:36.883Z,52.00
2019-03-31T01:04:08.543Z,52.00
2019-03-31T01:06:40.800Z,52.00
2019-03-31T01:09:29.985Z,51.90
2019-03-31T01:12:02.411Z,52.00
2019-03-31T01:14:34.399Z,52.00
2019-03-31T01:17:08.676Z,52.10
2019-03-31T01:19:41.572Z,52.20
2019-03-31T01:22:12.854Z,52.30
2019-03-31T01:24:44.134Z,52.40
2019-03-31T01:27:15.348Z,52.40
2019-03-31T01:29:46.585Z,52.40
2019-03-31T01:32:18.060Z,52.50
2019-03-31T01:34:49.678Z,52.60
2019-03-31T01:37:21.792Z,52.60
2019-03-31T01:39:53.492Z,52.60
2019-03-31T01:42:24.854Z,52.70
2019-03-31T01:44:56.087Z,52.70
2019-03-31T01:47:27.333Z,52.70
2019-03-31T01:49:59.019Z,52.80
2019-03-31T01:52:30.223Z,52.90
2019-03-31T01:55:03.683Z,52.90
2019-03-31T01:57:34.964Z,52.90
2019-03-31T02:00:10.836Z,52.80
2019-03-31T02:02:42.127Z,53.60
2019-03-31T02:05:13.374Z,53.00
2019-03-31T02:07:44.597Z,52.90
2019-03-31T02:10:16.075Z,53.00
2019-03-31T02:12:47.291Z,53.10
2019-03-31T02:15:18.587Z,53.10
2019-03-31T02:17:49.798Z,53.20
2019-03-31T02:20:21.093Z,53.10
2019-03-31T02:22:52.392Z,53.20
2019-03-31T02:25:23.640Z,53.30
2019-03-31T02:27:54.919Z,53.30
2019-03-31T02:30:26.236Z,53.30
2019-03-31T02:32:57.481Z,53.30
2019-03-31T02:35:28.706Z,53.30
2019-03-31T02:37:59.925Z,53.40
2019-03-31T02:40:31.153Z,53.50
2019-03-31T02:43:02.452Z,53.70
2019-03-31T02:45:33.670Z,53.60
2019-03-31T02:48:05.028Z,53.50
2019-03-31T02:50:52.601Z,53.70
2019-03-31T02:53:24.342Z,53.70
2019-03-31T02:55:58.429Z,53.60
2019-03-31T02:58:30.360Z,53.70
2019-03-31T03:01:02.419Z,53.90
2019-03-31T03:03:37.522Z,53.90
2019-03-31T03:06:12.800Z,53.90
2019-03-31T03:08:47.361Z,53.90
2019-03-31T03:11:21.093Z,53.90
2019-03-31T03:13:53.559Z,54.10
2019-03-31T03:16:25.240Z,54.10
2019-03-31T03:18:56.807Z,54.20
2019-03-31T03:21:28.187Z,54.10
2019-03-31T03:23:59.440Z,54.20
2019-03-31T03:26:30.733Z,54.20
2019-03-31T03:29:02.134Z,54.30
2019-03-31T03:31:33.473Z,54.30
2019-03-31T03:34:04.870Z,54.30
2019-03-31T03:36:36.091Z,54.40
2019-03-31T03:39:09.280Z,54.50
2019-03-31T03:41:40.483Z,54.50
2019-03-31T03:44:11.751Z,54.50
2019-03-31T03:46:42.993Z,54.70
2019-03-31T03:49:14.478Z,54.80
2019-03-31T03:51:45.859Z,54.90
2019-03-31T03:54:17.107Z,54.90
2019-03-31T03:56:48.353Z,54.80
2019-03-31T03:59:19.748Z,54.90
2019-03-31T04:01:54.178Z,54.90
2019-03-31T04:04:25.436Z,55.00
2019-03-31T04:06:56.708Z,54.90
2019-03-31T04:09:28.043Z,54.90
2019-03-31T04:11:59.333Z,54.90
2019-03-31T04:14:30.557Z,55.00
2019-03-31T04:17:01.829Z,55.00
2019-03-31T04:19:33.097Z,55.10
2019-03-31T04:22:04.314Z,55.00
2019-03-31T04:24:35.567Z,55.50
2019-03-31T04:27:06.837Z,55.10
2019-03-31T04:29:38.035Z,55.10
2019-03-31T04:32:09.289Z,55.20
2019-03-31T04:34:40.532Z,55.20
2019-03-31T04:37:14.057Z,55.20
2019-03-31T04:39:45.259Z,55.20
2019-03-31T04:42:16.504Z,55.20
2019-03-31T04:44:47.741Z,55.30
2019-03-31T04:47:19.034Z,55.30
2019-03-31T04:49:51.533Z,55.40
2019-03-31T04:52:24.618Z,56.00
2019-03-31T04:54:55.847Z,56.00
2019-03-31T04:57:27.113Z,55.50
2019-03-31T04:59:58.384Z,55.40
2019-03-31T05:02:29.603Z,55.50
2019-03-31T05:05:03.043Z,55.50
2019-03-31T05:07:34.366Z,55.60
2019-03-31T05:10:05.959Z,55.60
2019-03-31T05:12:37.196Z,55.60
2019-03-31T05:15:08.910Z,55.60
2019-03-31T05:17:40.169Z,55.60
2019-03-31T05:20:11.581Z,55.80
2019-03-31T05:22:43.923Z,55.70
2019-03-31T05:25:15.177Z,55.70
2019-03-31T05:27:46.450Z,55.70
2019-03-31T05:30:17.700Z,55.80
2019-03-31T05:32:48.940Z,55.80
2019-03-31T05:35:20.209Z,55.80
2019-03-31T05:37:51.650Z,55.90
2019-03-31T05:40:23.171Z,56.00
2019-03-31T05:42:54.459Z,56.00
2019-03-31T05:45:26.400Z,56.00
2019-03-31T05:47:57.662Z,56.10
2019-03-31T05:50:32.270Z,56.00
2019-03-31T05:53:03.655Z,56.00
2019-03-31T05:55:35.261Z,56.10
2019-03-31T05:58:06.488Z,56.20
2019-03-31T06:00:46.781Z,56.20
2019-03-31T06:03:18.023Z,56.20
2019-03-31T06:05:49.647Z,56.20
2019-03-31T06:08:21.064Z,56.20
2019-03-31T06:10:52.521Z,56.20
2019-03-31T06:13:23.788Z,56.30
2019-03-31T06:15:55.108Z,56.30
2019-03-31T06:18:26.328Z,56.40
2019-03-31T06:20:57.593Z,56.50
2019-03-31T06:23:30.259Z,56.50
2019-03-31T06:26:01.705Z,56.60
2019-03-31T06:28:35.785Z,56.60
2019-03-31T06:31:06.306Z,56.70
2019-03-31T06:33:37.696Z,56.80
2019-03-31T06:36:08.992Z,56.90
2019-03-31T06:38:41.212Z,56.90
2019-03-31T06:41:12.743Z,57.10
2019-03-31T06:43:44.114Z,57.10
2019-03-31T06:46:18.233Z,57.20
2019-03-31T06:48:49.446Z,57.30
2019-03-31T06:51:20.668Z,57.30
2019-03-31T06:53:51.979Z,57.40
2019-03-31T06:56:23.352Z,57.60
2019-03-31T06:58:55.034Z,57.50
2019-03-31T07:01:27.372Z,57.60
2019-03-31T07:03:58.643Z,57.60
2019-03-31T07:06:29.875Z,57.70
2019-03-31T07:09:01.137Z,57.70
2019-03-31T07:11:32.664Z,57.60
2019-03-31T07:14:05.066Z,58.00
2019-03-31T07:16:42.499Z,57.70
2019-03-31T07:19:13.884Z,57.70
2019-03-31T07:21:47.369Z,57.60
2019-03-31T07:24:27.522Z,57.60
2019-03-31T07:27:19.187Z,57.70
2019-03-31T07:30:09.616Z,57.60
2019-03-31T07:32:41.471Z,57.60
2019-03-31T07:35:18.627Z,57.60
2019-03-31T07:37:47.925Z,57.50
2019-03-31T07:40:21.952Z,57.50
2019-03-31T07:42:53.214Z,57.50
2019-03-31T07:45:24.647Z,57.50
2019-03-31T07:47:55.955Z,57.50
2019-03-31T07:50:28.354Z,57.50
2019-03-31T07:53:01.115Z,57.40
2019-03-31T07:55:32.360Z,58.00
2019-03-31T07:58:03.659Z,57.30
2019-03-31T08:00:38.007Z,56.40
2019-03-31T08:03:09.290Z,56.40
2019-03-31T08:05:40.840Z,56.30
2019-03-31T08:08:12.388Z,56.30
2019-03-31T08:10:43.658Z,55.90
2019-03-31T08:13:14.946Z,56.10
2019-03-31T08:15:46.217Z,56.10
2019-03-31T08:18:17.539Z,56.00
2019-03-31T08:20:51.416Z,55.80
2019-03-31T08:23:22.738Z,55.70
2019-03-31T08:25:54.386Z,55.50
2019-03-31T08:28:27.715Z,55.50
2019-03-31T08:30:59.030Z,55.30
2019-03-31T08:33:30.306Z,55.10
2019-03-31T08:36:01.733Z,55.00
2019-03-31T08:38:34.022Z,54.90
2019-03-31T08:41:05.312Z,54.60
2019-03-31T08:43:37.129Z,54.60
2019-03-31T08:46:08.419Z,54.40
2019-03-31T08:48:39.787Z,54.30
2019-03-31T08:51:11.033Z,54.10
2019-03-31T08:53:42.386Z,54.10
2019-03-31T08:56:13.735Z,53.80
2019-03-31T08:58:48.126Z,53.60
2019-03-31T09:01:20.895Z,53.50
2019-03-31T09:03:52.152Z,53.30
2019-03-31T09:06:23.427Z,53.30
2019-03-31T09:08:54.713Z,53.20
2019-03-31T09:11:26.023Z,53.00
2019-03-31T09:13:57.372Z,53.00
2019-03-31T09:16:28.615Z,52.60
2019-03-31T09:19:00.176Z,52.50
2019-03-31T09:21:31.503Z,52.20
2019-03-31T09:24:02.879Z,52.00
2019-03-31T09:26:34.127Z,51.90
2019-03-31T09:29:05.465Z,51.70
2019-03-31T09:31:36.699Z,51.60
2019-03-31T09:34:07.946Z,51.40
2019-03-31T09:36:39.215Z,51.10
2019-03-31T09:39:11.487Z,50.80
2019-03-31T09:41:42.973Z,50.60
2019-03-31T09:44:14.176Z,50.40
2019-03-31T09:46:45.491Z,50.20
2019-03-31T09:49:16.737Z,49.80
2019-03-31T09:51:48.090Z,49.50
2019-03-31T09:54:19.403Z,49.10
2019-03-31T09:56:50.827Z,48.80
2019-03-31T09:59:22.236Z,48.30
2019-03-31T10:01:53.651Z,47.90
2019-03-31T10:04:24.921Z,47.30
2019-03-31T10:06:56.785Z,47.00
2019-03-31T10:09:28.662Z,46.50
2019-03-31T10:12:00.312Z,46.10
2019-03-31T10:14:31.601Z,45.60
2019-03-31T10:17:03.009Z,45.40
2019-03-31T10:19:34.238Z,44.80
2019-03-31T10:22:05.489Z,44.90
2019-03-31T10:24:36.756Z,43.70
2019-03-31T10:27:08.104Z,43.10
2019-03-31T10:29:39.343Z,42.60
2019-03-31T10:32:12.236Z,41.90
2019-03-31T10:34:43.612Z,41.60
2019-03-31T10:37:14.900Z,41.20
2019-03-31T10:39:46.136Z,40.70
2019-03-31T10:42:17.407Z,40.40
2019-03-31T10:44:48.677Z,39.90
2019-03-31T10:47:19.949Z,39.50
2019-03-31T10:49:51.227Z,39.00
2019-03-31T10:52:22.529Z,38.50
2019-03-31T10:54:54.124Z,38.00
2019-03-31T10:57:25.525Z,37.50
2019-03-31T10:59:57.931Z,37.10
2019-03-31T11:02:29.358Z,36.80
2019-03-31T11:05:03.588Z,36.50
2019-03-31T11:07:36.900Z,36.10
2019-03-31T11:10:08.918Z,36.00
2019-03-31T11:12:41.545Z,35.70
2019-03-31T11:15:13.507Z,35.30
2019-03-31T11:17:45.800Z,35.00
2019-03-31T11:20:17.283Z,34.90
2019-03-31T11:22:59.424Z,34.70
2019-03-31T11:25:30.795Z,34.40
2019-03-31T11:28:02.149Z,34.40
2019-03-31T11:30:34.580Z,34.30
2019-03-31T11:33:07.667Z,34.00
2019-03-31T11:35:58.066Z,33.80
2019-03-31T11:38:29.482Z,33.70
2019-03-31T11:41:02.155Z,33.60
2019-03-31T11:43:33.508Z,33.30
2019-03-31T11:46:04.914Z,33.10
2019-03-31T11:48:36.254Z,32.90
2019-03-31T11:51:07.775Z,32.70
2019-03-31T11:53:39.219Z,33.10
2019-03-31T11:56:10.592Z,32.30
2019-03-31T11:58:42.055Z,32.00
2019-03-31T12:01:13.477Z,31.80
2019-03-31T12:03:44.929Z,31.70
2019-03-31T12:06:16.355Z,31.60
2019-03-31T12:08:54.913Z,31.50
2019-03-31T12:11:32.294Z,31.20
2019-03-31T12:14:03.567Z,31.10
2019-03-31T12:16:36.928Z,30.90
2019-03-31T12:19:08.258Z,30.80
2019-03-31T12:21:39.521Z,30.40
2019-03-31T12:24:10.796Z,30.10
2019-03-31T12:26:42.107Z,29.90
2019-03-31T12:29:13.646Z,29.70
2019-03-31T12:31:45.317Z,29.60
2019-03-31T12:34:16.564Z,29.30
2019-03-31T12:36:48.034Z,29.10
2019-03-31T12:39:19.279Z,28.90
2019-03-31T12:41:50.611Z,28.50
2019-03-31T12:44:24.977Z,28.20
2019-03-31T12:46:56.295Z,28.00
2019-03-31T12:49:27.799Z,27.80
2019-03-31T12:51:59.131Z,27.60
2019-03-31T12:54:30.421Z,27.30
2019-03-31T12:57:01.878Z,26.90
2019-03-31T12:59:33.265Z,26.60
2019-03-31T13:02:04.519Z,26.20
2019-03-31T13:04:35.824Z,26.50
2019-03-31T13:07:07.364Z,26.00
2019-03-31T13:09:38.642Z,25.80
2019-03-31T13:12:09.947Z,25.60
2019-03-31T13:14:41.249Z,25.40
2019-03-31T13:17:12.559Z,25.10
2019-03-31T13:19:46.225Z,24.90
2019-03-31T13:22:17.521Z,24.70
2019-03-31T13:24:49.548Z,24.50
2019-03-31T13:27:20.984Z,24.20
2019-03-31T13:29:52.358Z,24.00
2019-03-31T13:32:23.731Z,23.90
2019-03-31T13:34:55.142Z,23.70
2019-03-31T13:37:26.722Z,23.30
2019-03-31T13:39:57.989Z,23.10
2019-03-31T13:42:29.263Z,22.80
2019-03-31T13:45:00.675Z,22.50
2019-03-31T13:47:31.931Z,22.30
2019-03-31T13:50:03.078Z,22.10
2019-03-31T13:52:34.355Z,21.90
2019-03-31T13:55:07.134Z,21.80
2019-03-31T13:57:40.187Z,22.10
2019-03-31T14:00:13.050Z,21.30
2019-03-31T14:02:44.513Z,21.10
2019-03-31T14:05:16.103Z,20.90
2019-03-31T14:07:47.393Z,20.80
2019-03-31T14:10:20.803Z,20.70
2019-03-31T14:12:52.163Z,20.60
2019-03-31T14:15:23.501Z,20.60
2019-03-31T14:17:54.799Z,20.50
2019-03-31T14:20:26.114Z,20.50
2019-03-31T14:22:57.361Z,20.30
2019-03-31T14:25:28.749Z,20.20
2019-03-31T14:28:03.832Z,20.10
2019-03-31T14:30:35.072Z,19.90
2019-03-31T14:33:06.390Z,19.90
2019-03-31T14:35:38.217Z,20.00
2019-03-31T14:38:09.860Z,20.00
2019-03-31T14:40:41.154Z,19.90
2019-03-31T14:43:12.494Z,19.90
2019-03-31T14:45:43.861Z,19.70
2019-03-31T14:48:15.420Z,19.60
2019-03-31T14:50:46.685Z,19.70
2019-03-31T14:53:18.019Z,19.70
2019-03-31T14:55:49.376Z,19.60
2019-03-31T14:58:20.757Z,19.70
2019-03-31T15:00:52.047Z,19.70
2019-03-31T15:03:23.535Z,19.50
2019-03-31T15:05:54.769Z,19.50
2019-03-31T15:08:26.039Z,19.30
2019-03-31T15:10:57.449Z,19.30
2019-03-31T15:13:28.738Z,19.20
2019-03-31T15:16:01.928Z,19.10
2019-03-31T15:18:33.214Z,19.20
2019-03-31T15:21:04.584Z,19.20
2019-03-31T15:23:36.151Z,19.40
2019-03-31T15:26:07.429Z,19.40
2019-03-31T15:28:39.744Z,19.20
2019-03-31T15:31:11.203Z,18.90
2019-03-31T15:33:42.482Z,18.80
2019-03-31T15:36:13.943Z,18.50
2019-03-31T15:38:48.401Z,18.60
2019-03-31T15:41:21.405Z,18.60
2019-03-31T15:43:52.879Z,18.60
2019-03-31T15:46:24.814Z,18.50
2019-03-31T15:48:56.203Z,18.60
2019-03-31T15:51:27.475Z,18.70
2019-03-31T15:53:58.735Z,18.80
2019-03-31T15:56:30.086Z,18.90
2019-03-31T15:59:01.333Z,19.10
2019-03-31T16:01:32.635Z,19.30
2019-03-31T16:04:03.946Z,19.70
2019-03-31T16:06:35.275Z,20.10
2019-03-31T16:09:22.315Z,20.40
2019-03-31T16:11:53.528Z,20.70
2019-03-31T16:14:17.013Z,20.90
2019-03-31T16:16:47.692Z,21.30
2019-03-31T16:19:18.986Z,21.50
2019-03-31T16:21:49.491Z,21.90
2019-03-31T16:24:33.834Z,22.00
2019-03-31T16:27:04.322Z,22.30
2019-03-31T16:29:35.462Z,22.50
2019-03-31T16:32:06.160Z,22.70
2019-03-31T16:34:36.707Z,22.90
2019-03-31T16:37:07.198Z,23.10
2019-03-31T16:39:39.252Z,23.40
2019-03-31T16:42:09.808Z,23.60
2019-03-31T16:44:40.435Z,23.80
2019-03-31T16:47:12.838Z,23.90
2019-03-31T16:49:43.374Z,24.00
2019-03-31T16:52:14.006Z,24.00
2019-03-31T16:54:45.042Z,24.10
2019-03-31T16:57:15.639Z,24.20
2019-03-31T16:59:46.532Z,24.40
2019-03-31T17:02:18.019Z,25.10
2019-03-31T17:04:49.337Z,24.80
2019-03-31T17:07:21.106Z,25.00
2019-03-31T17:09:52.129Z,25.10
2019-03-31T17:12:22.732Z,25.40
2019-03-31T17:14:54.984Z,25.50
2019-03-31T17:17:25.802Z,25.60
2019-03-31T17:19:56.459Z,25.70
2019-03-31T17:22:27.264Z,25.90
2019-03-31T17:25:00.408Z,26.00
2019-03-31T17:27:31.245Z,26.70
2019-03-31T17:30:01.842Z,26.30
2019-03-31T17:32:32.907Z,26.50
2019-03-31T17:35:03.508Z,26.70
2019-03-31T17:37:34.199Z,26.80
2019-03-31T17:40:07.213Z,27.10
2019-03-31T17:42:38.259Z,27.60
2019-03-31T17:45:09.944Z,27.40
2019-03-31T17:47:41.259Z,27.50
2019-03-31T17:50:12.276Z,27.70
2019-03-31T17:52:45.116Z,27.90
2019-03-31T17:55:15.761Z,28.10
2019-03-31T17:57:47.876Z,28.40
2019-03-31T18:00:18.412Z,28.60
2019-03-31T18:02:49.021Z,28.80
2019-03-31T18:05:19.904Z,29.10
2019-03-31T18:07:52.938Z,29.30
2019-03-31T18:10:26.361Z,29.50
2019-03-31T18:12:56.960Z,29.70
2019-03-31T18:15:29.009Z,29.90
2019-03-31T18:18:00.686Z,30.00
2019-03-31T18:20:31.251Z,30.30
2019-03-31T18:23:03.183Z,30.70
2019-03-31T18:25:35.055Z,31.10
2019-03-31T18:28:06.107Z,31.30
2019-03-31T18:30:36.426Z,31.60
2019-03-31T18:33:07.140Z,32.00
2019-03-31T18:35:37.959Z,32.10
2019-03-31T18:38:08.691Z,32.40
2019-03-31T18:40:41.401Z,32.60
2019-03-31T18:43:13.688Z,32.70
2019-03-31T18:45:45.512Z,33.00
2019-03-31T18:48:18.193Z,33.20
2019-03-31T18:50:54.033Z,33.40
2019-03-31T18:53:42.468Z,33.70
2019-03-31T18:56:47.432Z,33.90
2019-03-31T18:59:43.468Z,34.10
2019-03-31T19:02:46.992Z,34.20
2019-03-31T19:05:45.907Z,34.40
2019-03-31T19:08:35.952Z,34.60
2019-03-31T19:11:30.205Z,34.80
2019-03-31T19:14:22.866Z,35.00
2019-03-31T19:17:03.601Z,35.30
2019-03-31T19:19:59.935Z,35.60
2019-03-31T19:23:06.711Z,35.80
2019-03-31T19:25:55.331Z,36.00
2019-03-31T19:28:36.677Z,36.00
2019-03-31T19:31:18.548Z,36.20
2019-03-31T19:34:10.612Z,36.40
2019-03-31T19:37:08.321Z,36.70
2019-03-31T19:40:07.335Z,36.80
2019-03-31T19:42:59.768Z,37.00
2019-03-31T19:45:58.402Z,38.00
2019-03-31T19:49:08.004Z,38.20
2019-03-31T19:51:57.342Z,38.40
2019-03-31T19:54:50.828Z,38.40
2019-03-31T19:57:44.690Z,38.60
2019-03-31T20:00:44.998Z,38.80
2019-03-31T20:03:54.297Z,39.10
2019-03-31T20:06:49.462Z,39.20
2019-03-31T20:09:31.392Z,39.40
2019-03-31T20:12:15.684Z,39.50
2019-03-31T20:15:14.318Z,39.70
2019-03-31T20:18:03.963Z,40.00
2019-03-31T20:20:47.565Z,40.10
2019-03-31T20:23:35.770Z,40.20
2019-03-31T20:26:27.655Z,40.50
2019-03-31T20:29:17.050Z,40.50
2019-03-31T20:32:18.377Z,40.80
2019-03-31T20:35:10.667Z,40.90
2019-03-31T20:37:50.640Z,41.00
2019-03-31T20:40:51.942Z,41.80
2019-03-31T20:43:47.222Z,41.30
2019-03-31T20:46:17.718Z,41.40
2019-03-31T20:48:48.190Z,41.50
2019-03-31T20:51:18.606Z,41.70
2019-03-31T20:53:49.162Z,41.90
2019-03-31T20:56:19.610Z,42.00
2019-03-31T20:58:50.192Z,42.20
2019-03-31T21:01:20.730Z,42.30
2019-03-31T21:03:51.219Z,42.40
2019-03-31T21:06:21.680Z,42.60
2019-03-31T21:08:52.361Z,42.80
2019-03-31T21:11:22.829Z,43.60
2019-03-31T21:13:56.839Z,43.00
2019-03-31T21:16:25.752Z,43.20
2019-03-31T21:18:57.206Z,43.20
2019-03-31T21:21:27.622Z,43.40
2019-03-31T21:23:58.102Z,43.50
2019-03-31T21:26:29.794Z,43.70
2019-03-31T21:29:00.237Z,43.80
2019-03-31T21:31:30.678Z,43.90
2019-03-31T21:34:01.334Z,44.00
2019-03-31T21:36:31.893Z,44.20
2019-03-31T21:39:05.883Z,44.20
2019-03-31T21:41:36.392Z,44.30
2019-03-31T21:44:07.000Z,44.40
2019-03-31T21:46:37.501Z,44.50
2019-03-31T21:49:07.969Z,44.70
2019-03-31T21:51:38.446Z,44.80
2019-03-31T21:54:08.942Z,45.00
2019-03-31T21:56:40.554Z,45.00
2019-03-31T21:59:11.162Z,45.10
2019-03-31T22:01:41.810Z,45.20
2019-03-31T22:04:12.436Z,45.30
2019-03-31T22:06:42.920Z,45.30
2019-03-31T22:09:14.016Z,45.40
2019-03-31T22:11:44.565Z,45.50
2019-03-31T22:14:14.995Z,45.60
2019-03-31T22:16:45.571Z,45.70
2019-03-31T22:19:16.104Z,45.80
2019-03-31T22:21:46.638Z,45.80
2019-03-31T22:24:17.482Z,45.80
2019-03-31T22:26:47.891Z,46.00
2019-03-31T22:29:18.347Z,46.10
2019-03-31T22:31:48.775Z,46.20
2019-03-31T22:34:19.239Z,46.30
2019-03-31T22:36:49.653Z,46.40
2019-03-31T22:39:20.137Z,46.40
2019-03-31T22:41:50.545Z,46.60
2019-03-31T22:44:20.976Z,46.70
2019-03-31T22:46:56.722Z,46.70
2019-03-31T22:49:27.119Z,46.80
2019-03-31T22:51:57.544Z,46.80
2019-03-31T22:54:28.012Z,46.90
2019-03-31T22:56:58.417Z,47.70
2019-03-31T22:59:28.853Z,47.10
2019-03-31T23:01:59.291Z,47.20
2019-03-31T23:04:30.155Z,48.00
2019-03-31T23:07:00.601Z,47.50
2019-03-31T23:09:34.311Z,47.50
2019-03-31T23:12:03.315Z,47.70
2019-03-31T23:14:33.764Z,47.90
2019-03-31T23:17:04.328Z,48.00
2019-03-31T23:19:34.792Z,48.10
2019-03-31T23:22:06.893Z,48.10
2019-03-31T23:24:37.337Z,48.90
2019-03-31T23:27:07.743Z,48.30
2019-03-31T23:29:38.142Z,48.30
2019-03-31T23:32:08.561Z,48.30
2019-03-31T23:34:38.981Z,48.40
2019-03-31T23:37:09.421Z,48.30
2019-03-31T23:39:39.869Z,48.50
2019-03-31T23:42:10.341Z,48.00
2019-03-31T23:44:40.835Z,48.60
2019-03-31T23:47:11.495Z,48.50
2019-03-31T23:49:41.979Z,48.50
2019-03-31T23:52:12.631Z,48.50
2019-03-31T23:54:43.161Z,48.70
2019-03-31T23:57:13.693Z,48.70
2019-03-31T23:59:45.591Z,48.70
